Time;durP1;ratioP1;P1;durP2;ratioP2;P2;SDS_P1;SDS_P2;PMS_P1;PMS_P2;Temp;Humidity;BMP_temperature;BMP_pressure;BME280_temperature;BME280_humidity;BME280_pressure;Samples;Min_cycle;Max_cycle;Signal;HPM_P1;HPM_P2
2022/11/20 00:02:08;;;;;;;8.23;4.50;;;;;;;0.50;100.00;100494.56;5039407;28;20052;-57
2022/11/20 00:04:33;;;;;;;14.98;4.72;;;;;;;0.53;100.00;100504.72;5037747;28;20033;-60
2022/11/20 00:06:58;;;;;;;11.15;5.13;;;;;;;0.56;100.00;100488.81;5030916;28;20602;-59
2022/11/20 00:09:24;;;;;;;12.98;5.28;;;;;;;0.59;100.00;100488.56;5030302;28;20118;-60
2022/11/20 00:11:49;;;;;;;8.82;5.13;;;;;;;0.63;100.00;100489.16;5028655;28;20855;-61
2022/11/20 00:14:14;;;;;;;14.40;4.40;;;;;;;0.69;100.00;100495.66;5039517;28;20485;-61
2022/11/20 00:16:40;;;;;;;10.48;3.88;;;;;;;0.75;100.00;100500.34;5025687;28;20135;-60
2022/11/20 00:19:05;;;;;;;8.90;5.35;;;;;;;0.78;100.00;100494.91;5041294;28;20096;-60
2022/11/20 00:21:31;;;;;;;19.23;5.60;;;;;;;0.80;100.00;100490.34;5036563;28;20033;-61
2022/11/20 00:23:57;;;;;;;18.23;5.50;;;;;;;0.82;100.00;100489.28;5038221;28;20053;-59
2022/11/20 00:26:24;;;;;;;10.65;5.00;;;;;;;0.85;100.00;100480.34;5038623;28;20071;-60
2022/11/20 00:28:52;;;;;;;11.13;5.18;;;;;;;0.87;100.00;100481.06;5044703;28;20064;-60
2022/11/20 00:31:19;;;;;;;12.95;4.50;;;;;;;0.90;100.00;100480.81;5043276;28;20425;-57
2022/11/20 00:33:44;;;;;;;11.15;4.30;;;;;;;0.92;100.00;100471.06;5037157;28;20033;-58
2022/11/20 00:36:13;;;;;;;12.02;5.03;;;;;;;0.97;100.00;100468.06;5036607;28;20561;-58
2022/11/20 00:38:38;;;;;;;16.63;5.07;;;;;;;0.99;100.00;100472.22;5037794;28;20534;-60
2022/11/20 00:41:06;;;;;;;11.55;4.25;;;;;;;1.03;100.00;100460.56;5036599;28;20109;-58
2022/11/20 00:43:32;;;;;;;12.25;5.35;;;;;;;1.04;100.00;100467.44;5039851;28;20029;-60
2022/11/20 00:45:58;;;;;;;9.95;5.25;;;;;;;1.05;100.00;100458.63;5043024;28;20110;-58
2022/11/20 00:48:24;;;;;;;6.35;3.47;;;;;;;1.08;100.00;100466.22;5035043;28;20078;-61
2022/11/20 00:50:49;;;;;;;7.63;4.47;;;;;;;1.09;100.00;100462.66;5042152;28;20037;-62
2022/11/20 00:53:15;;;;;;;7.35;3.75;;;;;;;1.10;100.00;100460.84;5036656;28;20037;-61
2022/11/20 00:55:40;;;;;;;12.63;4.00;;;;;;;1.13;100.00;100457.16;5037099;28;20029;-61
2022/11/20 00:58:06;;;;;;;8.60;4.00;;;;;;;1.15;100.00;100453.47;5042784;28;20067;-59
2022/11/20 01:00:31;;;;;;;11.52;4.25;;;;;;;1.20;100.00;100455.69;5041024;28;20739;-59
2022/11/20 01:02:56;;;;;;;11.57;5.57;;;;;;;1.24;100.00;100449.22;5037585;28;20490;-60
2022/11/20 01:05:22;;;;;;;11.13;3.83;;;;;;;1.29;100.00;100441.81;5029342;28;20474;-59
2022/11/20 01:07:47;;;;;;;10.10;4.95;;;;;;;1.33;100.00;100443.22;5041636;28;20037;-60
2022/11/20 01:10:12;;;;;;;15.00;5.00;;;;;;;1.36;100.00;100440.34;5038292;28;20028;-61
2022/11/20 01:12:38;;;;;;;9.68;3.90;;;;;;;1.36;100.00;100439.50;5039374;28;20032;-60
2022/11/20 01:15:03;;;;;;;7.80;4.75;;;;;;;1.36;100.00;100439.50;5035690;28;20105;-60
2022/11/20 01:17:31;;;;;;;7.25;3.97;;;;;;;1.39;100.00;100434.84;5043037;28;20050;-61
2022/11/20 01:19:56;;;;;;;5.80;3.28;;;;;;;1.41;100.00;100432.94;5033994;28;20055;-60
2022/11/20 01:22:21;;;;;;;6.97;4.38;;;;;;;1.43;100.00;100423.19;5034019;28;20370;-59
2022/11/20 01:24:47;;;;;;;7.93;4.45;;;;;;;1.46;100.00;100428.13;5034114;28;20052;-62
2022/11/20 01:27:12;;;;;;;6.68;3.92;;;;;;;1.50;100.00;100426.91;5040641;28;20154;-61
2022/11/20 01:29:37;;;;;;;7.72;4.05;;;;;;;1.54;100.00;100432.69;5038707;28;20353;-61
2022/11/20 01:32:03;;;;;;;13.73;3.72;;;;;;;1.57;100.00;100413.31;5023460;28;20475;-58
2022/11/20 01:34:28;;;;;;;11.02;5.03;;;;;;;1.59;100.00;100414.00;5035458;28;20038;-60
2022/11/20 01:36:53;;;;;;;10.52;4.15;;;;;;;1.61;100.00;100412.09;5037545;28;20040;-60
2022/11/20 01:39:25;;;;;;;9.30;3.58;;;;;;;1.67;100.00;100401.06;5039587;28;20120;-60
2022/11/20 01:45:00;;;;;;;5.97;4.57;;;;;;;1.75;100.00;100398.59;5034715;28;20098;-61
2022/11/20 01:47:34;;;;;;;5.20;2.90;;;;;;;1.75;100.00;100393.38;5029744;28;20029;-61
2022/11/20 01:50:14;;;;;;;9.77;2.95;;;;;;;1.78;100.00;100387.06;5036076;28;20466;-59
2022/11/20 01:52:45;;;;;;;5.10;3.08;;;;;;;1.80;100.00;100385.13;5038729;28;20060;-61
2022/11/20 01:55:17;;;;;;;6.05;4.07;;;;;;;1.82;100.00;100378.81;5040747;28;20083;-60
2022/11/20 01:57:45;;;;;;;8.80;3.08;;;;;;;1.89;100.00;100385.16;5038677;28;20045;-61
2022/11/20 02:00:14;;;;;;;6.40;2.75;;;;;;;1.93;100.00;100381.28;5038139;28;20111;-61
2022/11/20 02:02:45;;;;;;;8.05;3.90;;;;;;;1.94;100.00;100377.72;5036870;28;20036;-63
2022/11/20 02:05:27;;;;;;;9.82;3.00;;;;;;;1.99;100.00;100381.69;5040381;28;20033;-62
2022/11/20 02:07:54;;;;;;;8.75;2.85;;;;;;;1.98;100.00;100372.22;5037704;28;20131;-62
2022/11/20 02:10:20;;;;;;;5.57;3.17;;;;;;;2.00;100.00;100380.75;5038825;28;20036;-61
2022/11/20 02:15:32;;;;;;;5.22;2.67;;;;;;;2.09;100.00;100369.44;5034517;28;20076;-62
2022/11/20 02:17:57;;;;;;;11.00;3.88;;;;;;;2.14;100.00;100377.69;5042305;28;20156;-63
2022/11/20 02:20:22;;;;;;;4.72;2.67;;;;;;;2.15;100.00;100371.53;5040551;28;20028;-62
2022/11/20 02:22:55;;;;;;;8.30;2.42;;;;;;;2.22;100.00;100363.91;5023940;28;20037;-62
2022/11/20 02:25:21;;;;;;;5.45;2.50;;;;;;;2.25;100.00;100358.44;5043390;28;20039;-64
2022/11/20 02:27:47;;;;;;;5.72;1.92;;;;;;;2.26;100.00;100353.03;5036724;28;20376;-63
2022/11/20 02:30:13;;;;;;;5.05;2.95;;;;;;;2.29;100.00;100344.91;5045763;28;20043;-64
2022/11/20 02:32:38;;;;;;;10.70;3.10;;;;;;;2.32;100.00;100339.41;5040973;28;20029;-64
2022/11/20 02:35:26;;;;;;;6.28;2.60;;;;;;;2.33;100.00;100338.44;5045064;28;20035;-64
2022/11/20 02:37:54;;;;;;;8.57;2.75;;;;;;;2.36;100.00;100332.09;5043066;28;20503;-65
2022/11/20 02:40:20;;;;;;;4.13;2.92;;;;;;;2.38;100.00;100328.38;5039945;28;20054;-64
2022/11/20 02:42:45;;;;;;;5.32;2.72;;;;;;;2.39;100.00;100330.00;5042793;28;20489;-65
2022/11/20 02:45:10;;;;;;;7.93;2.75;;;;;;;2.45;100.00;100323.38;5040433;28;20028;-65
2022/11/20 02:47:36;;;;;;;8.38;3.63;;;;;;;2.47;100.00;100325.88;5031470;28;20029;-65
2022/11/20 02:50:01;;;;;;;7.88;4.15;;;;;;;2.47;100.00;100320.63;5045160;28;20048;-65
2022/11/20 02:52:27;;;;;;;5.78;2.05;;;;;;;2.51;100.00;100322.00;5047770;28;20052;-64
2022/11/20 02:54:52;;;;;;;10.30;3.80;;;;;;;2.54;100.00;100321.72;5045263;28;20367;-64
2022/11/20 02:57:18;;;;;;;4.18;2.83;;;;;;;2.56;100.00;100304.09;5025704;28;20112;-65
2022/11/20 02:59:43;;;;;;;8.45;2.25;;;;;;;2.58;100.00;100316.06;5044076;28;20033;-64
2022/11/20 03:02:09;;;;;;;3.25;1.73;;;;;;;2.62;100.00;100309.56;5041473;28;20033;-64
2022/11/20 03:04:34;;;;;;;5.00;2.38;;;;;;;2.65;100.00;100303.22;5037371;28;20652;-65
2022/11/20 03:06:59;;;;;;;10.43;3.72;;;;;;;2.69;100.00;100306.38;5039715;28;20080;-64
2022/11/20 03:09:25;;;;;;;5.60;2.90;;;;;;;2.74;100.00;100296.31;5048550;28;20022;-65
2022/11/20 03:11:50;;;;;;;5.97;3.45;;;;;;;2.77;100.00;100299.44;5013398;28;20565;-64
2022/11/20 03:14:16;;;;;;;3.47;1.85;;;;;;;2.77;100.00;100294.22;5042373;28;20058;-65
2022/11/20 03:16:42;;;;;;;7.10;2.72;;;;;;;2.82;100.00;100288.53;5037274;28;20036;-65
2022/11/20 03:19:07;;;;;;;4.53;2.75;;;;;;;2.98;100.00;100287.91;5041403;28;20029;-65
2022/11/20 03:21:33;;;;;;;6.18;2.00;;;;;;;3.18;100.00;100273.72;5027293;28;20029;-65
2022/11/20 03:23:58;;;;;;;4.00;2.08;;;;;;;3.33;100.00;100262.72;5034696;28;20379;-64
2022/11/20 03:26:26;;;;;;;9.68;2.95;;;;;;;3.46;100.00;100260.56;5046106;28;20033;-65
2022/11/20 03:28:57;;;;;;;4.93;2.13;;;;;;;3.53;100.00;100268.63;5031371;28;20169;-65
2022/11/20 03:31:27;;;;;;;4.70;1.73;;;;;;;3.62;100.00;100262.50;5043159;28;20051;-65
2022/11/20 03:33:53;;;;;;;5.30;2.57;;;;;;;3.64;100.00;100250.88;5049195;28;20037;-65
2022/11/20 03:36:20;;;;;;;12.60;2.90;;;;;;;3.68;100.00;100252.22;5042300;28;20036;-64
2022/11/20 03:38:45;;;;;;;5.45;2.75;;;;;;;3.72;100.00;100245.69;5043994;28;20100;-65
2022/11/20 03:41:13;;;;;;;9.80;2.20;;;;;;;3.77;100.00;100241.78;5042956;28;20128;-64
2022/11/20 03:43:40;;;;;;;3.35;1.98;;;;;;;3.78;100.00;100235.56;5049142;28;20029;-64
2022/11/20 03:46:07;;;;;;;5.72;2.85;;;;;;;3.81;100.00;100230.03;5047051;28;20036;-64
2022/11/20 03:48:32;;;;;;;6.85;3.03;;;;;;;3.82;100.00;100218.53;5048515;28;20024;-64
2022/11/20 03:51:30;;;;;;;3.67;1.85;;;;;;;3.85;100.00;100220.88;5042525;28;20096;-63
2022/11/20 03:54:01;;;;;;;2.03;1.90;;;;;;;3.83;100.00;100210.53;5030060;28;20444;-64
2022/11/20 03:56:30;;;;;;;6.68;2.30;;;;;;;3.85;100.00;100202.53;5042619;28;20122;-64
2022/11/20 03:58:55;;;;;;;5.63;2.28;;;;;;;3.88;100.00;100195.16;5049254;28;20526;-64
2022/11/20 04:01:26;;;;;;;17.80;4.38;;;;;;;3.93;100.00;100205.19;5046637;28;20124;-65
2022/11/20 04:03:54;;;;;;;8.95;2.17;;;;;;;3.94;100.00;100206.81;5048419;28;20029;-65
2022/11/20 04:06:38;;;;;;;6.78;2.45;;;;;;;3.99;100.00;100204.56;5051840;28;20063;-65
2022/11/20 04:09:04;;;;;;;7.35;2.72;;;;;;;4.04;100.00;100196.22;5041337;28;20055;-65
2022/11/20 04:11:33;;;;;;;6.28;2.38;;;;;;;4.07;100.00;100196.72;5039216;28;20036;-65
2022/11/20 04:14:00;;;;;;;5.22;2.22;;;;;;;4.11;100.00;100187.59;5050050;28;20025;-64
2022/11/20 04:16:29;;;;;;;6.72;2.42;;;;;;;4.15;100.00;100178.41;5038824;28;20033;-63
2022/11/20 04:18:57;;;;;;;5.30;2.22;;;;;;;4.15;100.00;100185.44;5037997;28;20029;-64
2022/11/20 04:21:23;;;;;;;2.78;2.22;;;;;;;4.21;100.00;100181.38;5041316;28;20064;-64
2022/11/20 04:23:49;;;;;;;2.55;1.25;;;;;;;4.25;100.00;100183.53;5046425;28;20021;-64
2022/11/20 04:26:14;;;;;;;1.63;1.42;;;;;;;4.29;100.00;100177.00;5045211;28;20051;-64
2022/11/20 04:28:40;;;;;;;10.60;3.33;;;;;;;4.36;100.00;100179.81;5043696;28;20033;-64
2022/11/20 04:31:14;;;;;;;6.88;2.55;;;;;;;4.39;100.00;100174.25;5026781;28;20021;-64
2022/11/20 04:33:40;;;;;;;6.25;2.83;;;;;;;4.42;100.00;100173.13;5046830;28;20482;-64
2022/11/20 04:36:11;;;;;;;3.92;3.25;;;;;;;4.42;100.00;100162.63;5050467;28;20032;-64
2022/11/20 04:38:37;;;;;;;7.90;3.10;;;;;;;4.43;100.00;100162.44;5045089;28;20033;-64
2022/11/20 04:41:05;;;;;;;9.65;3.40;;;;;;;4.45;100.00;100163.13;5041506;28;20450;-64
2022/11/20 04:43:31;;;;;;;1.70;1.13;;;;;;;4.46;100.00;100163.94;5063706;28;20052;-63
2022/11/20 04:45:57;;;;;;;2.35;1.25;;;;;;;4.49;100.00;100155.72;5040010;28;20127;-64
2022/11/20 04:48:23;;;;;;;6.63;1.67;;;;;;;4.53;100.00;100154.44;5047466;28;20031;-64
2022/11/20 04:50:49;;;;;;;3.42;1.33;;;;;;;4.58;100.00;100146.91;5046880;28;20028;-64
2022/11/20 04:53:14;;;;;;;3.03;1.35;;;;;;;4.63;100.00;100151.69;5048481;28;20454;-63
2022/11/20 04:55:40;;;;;;;4.55;1.60;;;;;;;4.62;100.00;100148.25;5040991;28;20114;-63
2022/11/20 04:58:05;;;;;;;3.25;1.77;;;;;;;4.63;100.00;100134.13;5040084;28;20116;-64
2022/11/20 05:00:30;;;;;;;4.28;1.38;;;;;;;4.67;100.00;100135.44;5052734;28;20078;-63
2022/11/20 05:02:56;;;;;;;2.67;1.40;;;;;;;4.67;100.00;100130.19;5049090;28;20021;-60
2022/11/20 05:05:21;;;;;;;4.40;1.48;;;;;;;4.69;100.00;100124.78;5022603;28;20060;-63
2022/11/20 05:07:46;;;;;;;1.60;1.50;;;;;;;4.71;100.00;100125.44;5042152;28;20088;-63
2022/11/20 05:10:12;;;;;;;1.65;0.88;;;;;;;4.71;100.00;100126.25;5053731;28;20193;-62
2022/11/20 05:12:37;;;;;;;5.78;1.77;;;;;;;4.75;100.00;100124.13;5043152;28;20043;-62
2022/11/20 05:15:03;;;;;;;8.35;2.50;;;;;;;4.80;100.00;100121.81;5053636;28;20029;-62
2022/11/20 05:17:28;;;;;;;6.63;2.63;;;;;;;4.82;100.00;100111.97;5046978;28;20068;-62
2022/11/20 05:19:53;;;;;;;5.35;2.05;;;;;;;4.82;100.00;100114.63;5044311;28;20531;-62
2022/11/20 05:22:19;;;;;;;3.60;0.80;;;;;;;4.85;100.00;100110.84;5034239;28;20119;-63
2022/11/20 05:24:44;;;;;;;6.43;1.52;;;;;;;4.87;100.00;100109.69;5027898;28;20375;-63
2022/11/20 05:27:09;;;;;;;4.88;1.50;;;;;;;4.90;100.00;100108.53;5056032;28;20130;-63
2022/11/20 05:29:35;;;;;;;1.92;0.98;;;;;;;4.89;100.00;100105.09;5049191;28;20398;-63
2022/11/20 05:32:00;;;;;;;5.03;1.73;;;;;;;4.91;100.00;100105.75;5043223;28;20066;-63
2022/11/20 05:34:25;;;;;;;6.05;2.25;;;;;;;4.91;100.00;100103.16;5052441;28;20050;-64
2022/11/20 05:36:51;;;;;;;5.63;1.15;;;;;;;4.96;100.00;100118.41;5049657;28;20075;-64
2022/11/20 05:39:16;;;;;;;2.17;1.20;;;;;;;4.96;100.00;100110.53;5042713;28;20056;-65
2022/11/20 05:41:41;;;;;;;6.47;1.77;;;;;;;4.98;100.00;100100.66;5042290;28;20090;-64
2022/11/20 05:44:07;;;;;;;1.88;1.60;;;;;;;5.04;100.00;100102.66;5043778;28;20025;-64
2022/11/20 05:46:32;;;;;;;1.60;1.02;;;;;;;5.09;100.00;100107.44;5049193;28;20040;-64
2022/11/20 05:48:58;;;;;;;1.38;0.70;;;;;;;5.08;100.00;100111.03;5031221;28;20025;-64
2022/11/20 05:51:25;;;;;;;1.23;0.80;;;;;;;5.10;100.00;100114.31;5053342;28;20021;-64
2022/11/20 05:53:50;;;;;;;2.00;1.15;;;;;;;5.12;100.00;100123.69;5024087;28;20119;-63
2022/11/20 05:56:18;;;;;;;6.38;2.17;;;;;;;5.16;100.00;100118.91;5038092;28;20123;-64
2022/11/20 05:58:43;;;;;;;0.65;0.65;;;;;;;5.17;100.00;100120.56;5039912;28;20025;-64
2022/11/20 06:01:15;;;;;;;5.50;1.38;;;;;;;5.21;100.00;100127.09;5017628;28;20025;-64
2022/11/20 06:03:43;;;;;;;1.85;1.13;;;;;;;5.19;100.00;100124.66;5037516;28;20025;-64
2022/11/20 06:06:09;;;;;;;0.90;0.60;;;;;;;5.18;100.00;100125.63;5039863;28;20053;-64
2022/11/20 06:08:34;;;;;;;0.77;0.77;;;;;;;5.20;100.00;100126.28;5036597;28;20391;-64
2022/11/20 06:11:08;;;;;;;1.50;0.80;;;;;;;5.19;100.00;100118.59;5042551;28;20098;-64
2022/11/20 06:13:34;;;;;;;0.95;0.73;;;;;;;5.18;100.00;100112.50;5040163;28;20021;-64
2022/11/20 06:16:00;;;;;;;1.55;1.20;;;;;;;5.22;100.00;100113.00;5039143;28;20026;-65
2022/11/20 06:18:28;;;;;;;1.70;0.57;;;;;;;5.25;100.00;100113.47;5048820;28;20070;-65
2022/11/20 06:21:08;;;;;;;1.08;0.82;;;;;;;5.25;100.00;100116.09;5048755;28;20025;-64
2022/11/20 06:23:34;;;;;;;1.27;1.02;;;;;;;5.26;100.00;100122.19;5018964;28;20119;-65
2022/11/20 06:26:06;;;;;;;2.78;1.52;;;;;;;5.32;100.00;100128.59;5041237;28;20110;-65
2022/11/20 06:28:31;;;;;;;2.05;0.57;;;;;;;5.29;100.00;100113.16;5035457;28;20107;-64
2022/11/20 06:30:57;;;;;;;2.15;0.95;;;;;;;5.28;100.00;100109.69;5052856;28;20049;-65
2022/11/20 06:33:22;;;;;;;3.88;1.10;;;;;;;5.31;100.00;100111.19;5037001;28;20478;-65
2022/11/20 06:35:48;;;;;;;2.63;1.58;;;;;;;5.26;100.00;100101.16;5034751;28;20041;-66
2022/11/20 06:38:13;;;;;;;2.15;0.82;;;;;;;5.24;100.00;100100.53;5057811;28;20032;-65
2022/11/20 06:40:42;;;;;;;1.02;0.75;;;;;;;5.28;100.00;100101.00;5038781;28;20042;-64
2022/11/20 06:43:09;;;;;;;1.10;0.95;;;;;;;5.31;100.00;100105.91;5041842;28;20021;-65
2022/11/20 06:45:34;;;;;;;3.53;1.73;;;;;;;5.34;100.00;100105.59;5035435;28;20036;-65
2022/11/20 06:48:00;;;;;;;0.98;0.98;;;;;;;5.35;100.00;100096.72;5037286;28;20033;-64
2022/11/20 06:50:25;;;;;;;1.20;1.00;;;;;;;5.27;100.00;100089.66;5048053;28;20036;-65
2022/11/20 06:52:50;;;;;;;2.17;1.17;;;;;;;5.18;100.00;100082.75;5035782;28;20128;-65
2022/11/20 06:55:16;;;;;;;2.63;1.20;;;;;;;5.11;100.00;100084.41;5037827;28;20068;-65
2022/11/20 06:57:41;;;;;;;1.35;0.90;;;;;;;5.08;100.00;100085.56;5040716;28;20127;-65
2022/11/20 07:00:07;;;;;;;1.77;1.40;;;;;;;5.03;100.00;100072.94;5045378;28;20421;-64
2022/11/20 07:02:32;;;;;;;0.60;0.60;;;;;;;4.98;100.00;100077.00;5044128;28;20028;-65
2022/11/20 07:04:58;;;;;;;2.08;1.25;;;;;;;4.97;100.00;100078.00;5024665;28;20037;-65
2022/11/20 07:07:23;;;;;;;1.15;0.68;;;;;;;4.98;100.00;100077.00;5044114;28;20049;-64
2022/11/20 07:09:48;;;;;;;2.97;1.33;;;;;;;4.94;100.00;100067.84;5044005;28;20067;-65
2022/11/20 07:12:14;;;;;;;0.85;0.85;;;;;;;4.90;100.00;100066.50;5039548;28;20029;-65
2022/11/20 07:14:39;;;;;;;3.70;0.85;;;;;;;4.80;100.00;100059.63;5040484;28;20032;-65
2022/11/20 07:17:04;;;;;;;1.00;0.70;;;;;;;4.75;100.00;100071.59;5041751;28;20029;-65
2022/11/20 07:19:30;;;;;;;1.77;0.63;;;;;;;4.65;100.00;100070.94;5041661;28;20078;-64
2022/11/20 07:21:55;;;;;;;0.98;0.75;;;;;;;4.54;100.00;100061.56;5042409;28;20120;-65
2022/11/20 07:24:20;;;;;;;14.13;2.35;;;;;;;4.40;100.00;100057.78;5028965;28;20032;-65
2022/11/20 07:26:48;;;;;;;13.77;2.30;;;;;;;4.34;100.00;100059.25;5022857;28;20501;-64
2022/11/20 07:29:14;;;;;;;1.20;0.63;;;;;;;4.29;100.00;100063.34;5045238;28;20658;-65
2022/11/20 07:31:40;;;;;;;10.15;0.85;;;;;;;4.20;100.00;100059.03;5042732;28;20037;-65
2022/11/20 07:34:05;;;;;;;2.40;1.00;;;;;;;4.08;100.00;100064.59;5044035;28;20021;-64
2022/11/20 07:36:30;;;;;;;4.10;0.95;;;;;;;3.96;100.00;100073.72;5037169;28;20033;-66
2022/11/20 07:38:56;;;;;;;17.92;1.50;;;;;;;3.87;100.00;100072.88;5050464;28;20032;-65
2022/11/20 07:41:21;;;;;;;2.67;0.68;;;;;;;3.81;100.00;100077.91;5042989;28;20543;-65
2022/11/20 07:43:46;;;;;;;11.55;3.03;;;;;;;3.78;100.00;100070.34;5030266;28;20025;-65
2022/11/20 07:46:12;;;;;;;14.45;1.48;;;;;;;3.76;100.00;100067.88;5042138;28;20043;-64
2022/11/20 07:48:37;;;;;;;28.65;3.95;;;;;;;3.76;100.00;100077.56;5050921;28;20052;-65
2022/11/20 07:51:02;;;;;;;3.20;0.70;;;;;;;3.79;100.00;100074.63;5039809;28;20025;-65
2022/11/20 07:53:28;;;;;;;13.82;0.95;;;;;;;3.79;100.00;100091.16;5043489;28;20053;-65
2022/11/20 07:55:53;;;;;;;6.22;0.80;;;;;;;3.73;100.00;100086.56;5033372;28;20033;-65
2022/11/20 07:58:20;;;;;;;31.35;3.30;;;;;;;3.68;100.00;100094.06;5029654;28;20040;-64
2022/11/20 08:00:46;;;;;;;7.32;0.70;;;;;;;3.62;100.00;100100.75;5048777;28;20051;-65
2022/11/20 08:03:11;;;;;;;4.20;0.75;;;;;;;3.56;100.00;100098.72;5034253;28;20041;-65
2022/11/20 08:05:37;;;;;;;7.55;0.50;;;;;;;3.53;100.00;100100.84;5038878;28;20076;-65
2022/11/20 08:08:03;;;;;;;3.65;1.05;;;;;;;3.50;100.00;100102.00;5036960;28;20068;-65
2022/11/20 08:10:28;;;;;;;7.30;0.52;;;;;;;3.46;100.00;100100.66;5052428;28;20507;-64
2022/11/20 08:15:39;;;;;;;4.47;0.60;;;;;;;3.37;100.00;100112.88;5033319;28;20398;-65
2022/11/20 08:18:13;;;;;;;5.78;0.60;;;;;;;3.34;100.00;100115.81;5038720;28;20033;-64
2022/11/20 08:20:38;;;;;;;4.30;0.88;;;;;;;3.30;100.00;100111.03;5057318;28;20025;-65
2022/11/20 08:23:05;;;;;;;3.30;0.20;;;;;;;3.33;100.00;100118.56;5027327;28;21038;-64
2022/11/20 08:25:33;;;;;;;4.53;0.32;;;;;;;3.55;100.00;100118.06;5042010;28;20119;-65
2022/11/20 08:27:59;;;;;;;0.65;0.40;;;;;;;4.09;100.00;100120.50;5054958;28;20054;-65
2022/11/20 08:30:26;;;;;;;4.78;0.20;;;;;;;4.21;100.00;100135.00;5047621;28;20025;-64
2022/11/20 08:32:51;;;;;;;4.47;0.55;;;;;;;4.24;100.00;100123.34;5029743;28;20425;-65
2022/11/20 08:35:17;;;;;;;4.05;0.40;;;;;;;4.27;100.00;100123.03;5040006;28;20106;-64
2022/11/20 08:37:46;;;;;;;5.82;0.90;;;;;;;4.45;100.00;100130.81;5056569;28;20066;-65
2022/11/20 08:40:11;;;;;;;2.58;1.05;;;;;;;4.57;100.00;100129.53;5055263;28;20043;-65
2022/11/20 08:42:37;;;;;;;6.72;0.55;;;;;;;5.05;100.00;100132.38;5039985;28;20021;-63
2022/11/20 08:45:03;;;;;;;9.35;3.05;;;;;;;5.27;100.00;100130.88;5049468;28;20084;-64
2022/11/20 08:47:28;;;;;;;2.90;0.73;;;;;;;5.45;100.00;100134.19;5044317;28;20038;-64
2022/11/20 08:49:53;;;;;;;9.30;1.00;;;;;;;5.58;100.00;100144.19;5050694;28;20567;-65
2022/11/20 08:52:19;;;;;;;3.58;0.93;;;;;;;5.68;100.00;100142.22;5032190;28;20128;-64
2022/11/20 08:54:44;;;;;;;3.47;0.38;;;;;;;5.66;100.00;100138.91;5054061;28;20025;-64
2022/11/20 08:57:09;;;;;;;3.88;1.33;;;;;;;5.67;100.00;100140.53;5045944;28;20358;-64
2022/11/20 08:59:35;;;;;;;1.70;0.25;;;;;;;5.66;100.00;100137.09;5039236;28;20107;-64
2022/11/20 09:02:00;;;;;;;2.65;0.40;;;;;;;5.69;100.00;100142.03;5049368;28;20068;-64
2022/11/20 09:04:25;;;;;;;2.78;0.40;;;;;;;5.72;100.00;100145.31;5063605;28;20103;-64
2022/11/20 09:06:51;;;;;;;8.68;1.75;;;;;;;5.67;100.00;100148.44;5036432;28;20049;-64
2022/11/20 09:09:18;;;;;;;3.00;0.52;;;;;;;5.62;100.00;100175.22;5043492;28;20277;-64
2022/11/20 09:11:44;;;;;;;8.63;1.90;;;;;;;5.63;100.00;100178.72;5055216;28;20474;-64
2022/11/20 09:14:09;;;;;;;1.30;0.30;;;;;;;5.73;100.00;100178.50;5057362;28;20041;-64
2022/11/20 09:16:34;;;;;;;13.02;1.20;;;;;;;5.88;100.00;100182.91;5040424;28;20094;-65
2022/11/20 09:19:00;;;;;;;11.57;3.65;;;;;;;6.06;100.00;100180.13;5050275;28;20033;-65
2022/11/20 09:21:25;;;;;;;10.77;2.25;;;;;;;6.15;100.00;100182.75;5036068;28;20021;-65
2022/11/20 09:23:50;;;;;;;4.75;1.50;;;;;;;6.31;100.00;100172.16;5050211;28;20036;-64
2022/11/20 09:26:16;;;;;;;13.23;3.25;;;;;;;6.36;100.00;100169.81;5044948;28;20028;-65
2022/11/20 09:28:41;;;;;;;7.20;0.82;;;;;;;6.52;100.00;100172.38;5044051;28;20405;-64
2022/11/20 09:31:08;;;;;;;4.07;1.42;;;;;;;6.65;100.00;100168.38;5057113;28;20029;-64
2022/11/20 09:33:35;;;;;;;7.68;1.45;;;;;;;6.70;100.00;100169.47;5041300;28;20117;-64
2022/11/20 09:36:00;;;;;;;2.42;0.77;;;;;;;6.78;100.00;100152.81;5037905;28;20029;-64
2022/11/20 09:38:26;;;;;;;7.30;0.93;;;;;;;6.88;100.00;100155.22;5017524;28;20078;-64
2022/11/20 09:40:57;;;;;;;12.93;0.90;;;;;;;6.93;100.00;100142.34;5046169;28;20360;-63
2022/11/20 09:43:31;;;;;;;2.47;1.08;;;;;;;6.98;100.00;100137.38;5031731;28;20029;-64
2022/11/20 09:46:21;;;;;;;1.38;0.82;;;;;;;7.00;100.00;100135.38;5024282;28;20025;-63
2022/11/20 09:48:56;;;;;;;2.47;1.13;;;;;;;7.01;100.00;100136.19;5031413;28;20339;-63
2022/11/20 09:51:27;;;;;;;6.38;1.75;;;;;;;7.09;100.00;100142.22;5031724;28;20044;-63
2022/11/20 09:54:14;;;;;;;5.05;0.70;;;;;;;7.24;100.00;100130.91;5039558;28;20024;-64
2022/11/20 09:56:44;;;;;;;7.13;1.65;;;;;;;7.33;100.00;100127.19;5035510;28;20037;-63
2022/11/20 09:59:46;;;;;;;10.15;0.90;;;;;;;7.46;100.00;100116.88;5036829;28;20087;-63
2022/11/20 10:02:40;;;;;;;29.10;2.72;;;;;;;7.52;100.00;100121.41;5037610;28;20028;-62
2022/11/20 10:05:10;;;;;;;12.15;2.50;;;;;;;7.57;100.00;100121.69;5035868;28;20545;-63
2022/11/20 10:07:47;;;;;;;6.18;2.15;;;;;;;7.70;100.00;100104.44;5037367;28;20049;-62
2022/11/20 10:10:21;;;;;;;7.90;1.25;;;;;;;7.71;100.00;100100.78;5038857;28;20156;-64
2022/11/20 10:13:00;;;;;;;6.30;0.85;;;;;;;7.75;100.00;100094.16;5032289;28;20025;-62
2022/11/20 10:15:34;;;;;;;19.00;3.78;;;;;;;7.81;100.00;100094.22;5034313;28;20052;-62
2022/11/20 10:18:16;;;;;;;6.97;1.38;;;;;;;7.82;100.00;100081.84;5032354;28;20247;-62
2022/11/20 10:21:08;;;;;;;11.95;0.52;;;;;;;7.93;100.00;100089.31;5032508;28;20039;-62
2022/11/20 10:23:51;;;;;;;8.52;0.70;;;;;;;7.99;100.00;100100.97;5034402;28;20029;-63
2022/11/20 10:26:28;;;;;;;7.63;1.40;;;;;;;8.04;100.00;100086.19;5044855;28;20029;-62
2022/11/20 10:29:28;;;;;;;11.05;3.30;;;;;;;8.07;100.00;100100.84;5036208;28;20037;-64
2022/11/20 10:38:43;;;;;;;6.60;0.90;;;;;;;8.26;100.00;100073.03;5030179;28;20044;-63
2022/11/20 10:41:26;;;;;;;7.30;2.47;;;;;;;8.35;100.00;100079.06;5026125;28;20044;-63
2022/11/20 10:45:00;;;;;;;8.40;0.80;;;;;;;8.43;100.00;100071.84;5042816;28;20280;-63
2022/11/20 10:47:00;;;;;;;7.05;1.42;;;;;;;8.39;100.00;100045.97;5049733;28;20198;-62
2022/11/20 10:49:26;;;;;;;9.00;1.98;;;;;;;8.38;100.00;100050.44;5044588;28;21242;-62
2022/11/20 10:51:51;;;;;;;16.63;3.33;;;;;;;8.40;100.00;100043.16;5022599;28;20036;-61
2022/11/20 10:54:50;;;;;;;10.98;2.63;;;;;;;8.51;100.00;100026.81;5040003;28;20087;-61
2022/11/20 10:57:58;;;;;;;11.27;2.10;;;;;;;8.55;100.00;100024.63;5041210;28;20036;-61
2022/11/20 11:00:24;;;;;;;5.95;0.75;;;;;;;8.62;100.00;100022.88;5046535;28;20546;-61
2022/11/20 11:02:49;;;;;;;9.27;2.35;;;;;;;8.72;100.00;100017.25;5047280;28;20036;-62
2022/11/20 11:05:20;;;;;;;12.38;0.80;;;;;;;8.80;100.00;100003.06;5053326;28;20107;-62
2022/11/20 11:07:50;;;;;;;7.63;1.38;;;;;;;8.94;100.00;100018.88;5051402;28;20080;-62
2022/11/20 11:10:15;;;;;;;4.47;1.05;;;;;;;8.99;100.00;100013.00;5031337;28;20049;-61
2022/11/20 11:12:45;;;;;;;14.23;2.35;;;;;;;9.05;100.00;100000.84;5047040;28;20091;-59
2022/11/20 11:15:24;;;;;;;7.20;1.60;;;;;;;9.10;100.00;99999.25;5037004;28;20314;-60
2022/11/20 11:17:49;;;;;;;13.00;1.27;;;;;;;9.18;100.00;100016.78;5041594;28;20055;-61
2022/11/20 11:20:22;;;;;;;12.43;1.67;;;;;;;9.22;100.00;100014.59;5044300;28;20028;-62
2022/11/20 11:22:49;;;;;;;6.70;1.83;;;;;;;9.27;100.00;99999.78;5035575;28;20501;-61
2022/11/20 11:25:29;;;;;;;5.80;2.03;;;;;;;9.30;100.00;100009.97;5043401;28;20207;-60
2022/11/20 11:27:59;;;;;;;5.38;0.82;;;;;;;9.34;100.00;100013.84;5037358;28;20094;-61
2022/11/20 11:30:26;;;;;;;11.02;1.52;;;;;;;9.34;100.00;100005.91;5036338;28;20020;-61
2022/11/20 11:33:06;;;;;;;11.60;1.58;;;;;;;9.33;100.00;100001.63;5038092;28;20616;-58
2022/11/20 11:35:32;;;;;;;8.93;1.30;;;;;;;9.31;100.00;99982.47;5048450;28;20029;-61
2022/11/20 11:38:15;;;;;;;15.90;3.17;;;;;;;9.39;100.00;99998.19;5038967;28;20470;-62
2022/11/20 11:40:40;;;;;;;9.93;1.55;;;;;;;9.45;100.00;99993.13;5036113;28;20170;-63
2022/11/20 11:46:19;;;;;;;8.60;2.25;;;;;;;9.44;100.00;99986.22;5040848;28;20028;-62
2022/11/20 11:48:59;;;;;;;10.48;0.85;;;;;;;9.41;100.00;99991.91;5043363;28;20047;-62